sensor_id;sensor_type;location;lat;lon;timestamp;temperature;humidity
60313;DHT22;46158;52.850;6.970;2022-07-29T00:01:06;19.40;76.00
60313;DHT22;46158;52.850;6.970;2022-07-29T00:03:32;19.40;76.00
60313;DHT22;46158;52.850;6.970;2022-07-29T00:05:58;19.40;76.00
60313;DHT22;46158;52.850;6.970;2022-07-29T00:08:23;19.40;76.00
60313;DHT22;46158;52.850;6.970;2022-07-29T00:10:49;19.40;76.00
60313;DHT22;46158;52.850;6.970;2022-07-29T00:13:15;19.40;76.00
60313;DHT22;46158;52.850;6.970;2022-07-29T00:15:41;19.40;76.00
60313;DHT22;46158;52.850;6.970;2022-07-29T00:18:06;19.40;76.00
60313;DHT22;46158;52.850;6.970;2022-07-29T00:20:32;19.40;76.00
60313;DHT22;46158;52.850;6.970;2022-07-29T00:22:57;19.40;76.00
60313;DHT22;46158;52.850;6.970;2022-07-29T00:25:23;19.30;75.90
60313;DHT22;46158;52.850;6.970;2022-07-29T00:27:49;19.40;76.00
60313;DHT22;46158;52.850;6.970;2022-07-29T00:30:14;19.40;76.00
60313;DHT22;46158;52.850;6.970;2022-07-29T00:32:41;19.30;75.90
60313;DHT22;46158;52.850;6.970;2022-07-29T00:35:07;19.30;76.00
60313;DHT22;46158;52.850;6.970;2022-07-29T00:37:51;19.30;76.00
60313;DHT22;46158;52.850;6.970;2022-07-29T00:40:16;19.30;76.00
60313;DHT22;46158;52.850;6.970;2022-07-29T00:42:47;19.30;76.00
60313;DHT22;46158;52.850;6.970;2022-07-29T00:45:13;19.30;76.00
60313;DHT22;46158;52.850;6.970;2022-07-29T00:47:39;19.30;76.00
60313;DHT22;46158;52.850;6.970;2022-07-29T00:50:06;19.30;76.00
60313;DHT22;46158;52.850;6.970;2022-07-29T00:52:33;19.30;76.00
60313;DHT22;46158;52.850;6.970;2022-07-29T00:55:02;19.20;76.00
60313;DHT22;46158;52.850;6.970;2022-07-29T00:57:27;19.20;76.00
60313;DHT22;46158;52.850;6.970;2022-07-29T00:59:53;19.20;76.00
60313;DHT22;46158;52.850;6.970;2022-07-29T01:02:19;19.20;76.00
60313;DHT22;46158;52.850;6.970;2022-07-29T01:04:44;19.30;76.00
60313;DHT22;46158;52.850;6.970;2022-07-29T01:07:10;19.20;76.00
60313;DHT22;46158;52.850;6.970;2022-07-29T01:09:37;19.20;76.00
60313;DHT22;46158;52.850;6.970;2022-07-29T01:12:04;19.20;76.70
60313;DHT22;46158;52.850;6.970;2022-07-29T01:14:30;19.20;76.00
60313;DHT22;46158;52.850;6.970;2022-07-29T01:17:04;19.20;76.00
60313;DHT22;46158;52.850;6.970;2022-07-29T01:20:02;19.20;76.00
60313;DHT22;46158;52.850;6.970;2022-07-29T01:22:31;19.20;75.90
60313;DHT22;46158;52.850;6.970;2022-07-29T01:27:43;19.20;76.00
60313;DHT22;46158;52.850;6.970;2022-07-29T01:30:10;19.20;76.00
60313;DHT22;46158;52.850;6.970;2022-07-29T01:32:38;19.20;76.10
60313;DHT22;46158;52.850;6.970;2022-07-29T01:35:22;19.20;76.00
60313;DHT22;46158;52.850;6.970;2022-07-29T01:38:05;19.20;76.10
60313;DHT22;46158;52.850;6.970;2022-07-29T01:40:48;19.20;76.00
60313;DHT22;46158;52.850;6.970;2022-07-29T01:43:18;19.20;76.10
60313;DHT22;46158;52.850;6.970;2022-07-29T01:46:05;19.20;76.10
60313;DHT22;46158;52.850;6.970;2022-07-29T01:48:42;19.10;76.00
60313;DHT22;46158;52.850;6.970;2022-07-29T01:51:21;19.10;76.10
60313;DHT22;46158;52.850;6.970;2022-07-29T01:53:59;19.10;76.00
60313;DHT22;46158;52.850;6.970;2022-07-29T01:56:28;19.10;76.10
60313;DHT22;46158;52.850;6.970;2022-07-29T01:58:57;19.10;76.10
60313;DHT22;46158;52.850;6.970;2022-07-29T02:01:24;19.10;76.10
60313;DHT22;46158;52.850;6.970;2022-07-29T02:03:50;19.10;76.10
60313;DHT22;46158;52.850;6.970;2022-07-29T02:06:19;19.10;76.10
60313;DHT22;46158;52.850;6.970;2022-07-29T02:08:47;19.10;76.10
60313;DHT22;46158;52.850;6.970;2022-07-29T02:11:13;19.10;76.20
60313;DHT22;46158;52.850;6.970;2022-07-29T02:13:39;19.10;76.10
60313;DHT22;46158;52.850;6.970;2022-07-29T02:16:06;19.10;76.20
60313;DHT22;46158;52.850;6.970;2022-07-29T02:18:35;19.10;76.20
60313;DHT22;46158;52.850;6.970;2022-07-29T02:21:03;19.10;76.20
60313;DHT22;46158;52.850;6.970;2022-07-29T02:23:31;19.10;76.20
60313;DHT22;46158;52.850;6.970;2022-07-29T02:25:59;19.00;76.10
60313;DHT22;46158;52.850;6.970;2022-07-29T02:28:27;19.10;76.20
60313;DHT22;46158;52.850;6.970;2022-07-29T02:30:55;19.00;76.20
60313;DHT22;46158;52.850;6.970;2022-07-29T02:33:24;19.00;76.20
60313;DHT22;46158;52.850;6.970;2022-07-29T02:35:51;19.10;76.30
60313;DHT22;46158;52.850;6.970;2022-07-29T02:38:18;19.00;76.20
60313;DHT22;46158;52.850;6.970;2022-07-29T02:41:08;19.00;76.20
60313;DHT22;46158;52.850;6.970;2022-07-29T02:43:35;19.00;76.20
60313;DHT22;46158;52.850;6.970;2022-07-29T02:46:03;19.00;76.50
60313;DHT22;46158;52.850;6.970;2022-07-29T02:48:37;19.00;76.20
60313;DHT22;46158;52.850;6.970;2022-07-29T02:51:19;19.00;76.30
60313;DHT22;46158;52.850;6.970;2022-07-29T02:53:50;19.00;76.30
60313;DHT22;46158;52.850;6.970;2022-07-29T02:56:18;19.00;76.30
60313;DHT22;46158;52.850;6.970;2022-07-29T02:58:57;19.00;76.30
60313;DHT22;46158;52.850;6.970;2022-07-29T03:01:25;19.00;76.30
60313;DHT22;46158;52.850;6.970;2022-07-29T03:03:54;19.00;76.30
60313;DHT22;46158;52.850;6.970;2022-07-29T03:06:25;19.00;76.30
60313;DHT22;46158;52.850;6.970;2022-07-29T03:08:53;19.00;76.30
60313;DHT22;46158;52.850;6.970;2022-07-29T03:11:19;19.00;76.30
60313;DHT22;46158;52.850;6.970;2022-07-29T03:13:46;18.90;76.30
60313;DHT22;46158;52.850;6.970;2022-07-29T03:16:12;18.90;76.30
60313;DHT22;46158;52.850;6.970;2022-07-29T03:18:38;18.90;76.30
60313;DHT22;46158;52.850;6.970;2022-07-29T03:21:04;18.90;76.30
60313;DHT22;46158;52.850;6.970;2022-07-29T03:23:30;18.90;76.30
60313;DHT22;46158;52.850;6.970;2022-07-29T03:25:56;18.90;76.40
60313;DHT22;46158;52.850;6.970;2022-07-29T03:28:23;18.90;76.30
60313;DHT22;46158;52.850;6.970;2022-07-29T03:30:49;18.90;76.40
60313;DHT22;46158;52.850;6.970;2022-07-29T03:33:15;18.90;76.40
60313;DHT22;46158;52.850;6.970;2022-07-29T03:35:41;18.90;76.40
60313;DHT22;46158;52.850;6.970;2022-07-29T03:38:06;18.90;76.40
60313;DHT22;46158;52.850;6.970;2022-07-29T03:41:05;18.90;76.40
60313;DHT22;46158;52.850;6.970;2022-07-29T03:43:35;18.90;76.30
60313;DHT22;46158;52.850;6.970;2022-07-29T03:46:04;18.80;76.30
60313;DHT22;46158;52.850;6.970;2022-07-29T03:48:33;18.90;76.40
60313;DHT22;46158;52.850;6.970;2022-07-29T03:51:01;18.80;76.40
60313;DHT22;46158;52.850;6.970;2022-07-29T03:53:26;18.80;76.40
60313;DHT22;46158;52.850;6.970;2022-07-29T03:55:56;18.80;76.40
60313;DHT22;46158;52.850;6.970;2022-07-29T03:58:26;18.80;76.40
60313;DHT22;46158;52.850;6.970;2022-07-29T04:00:54;18.80;76.40
60313;DHT22;46158;52.850;6.970;2022-07-29T04:03:20;18.80;76.40
60313;DHT22;46158;52.850;6.970;2022-07-29T04:05:58;18.80;76.50
60313;DHT22;46158;52.850;6.970;2022-07-29T04:08:23;18.80;76.40
60313;DHT22;46158;52.850;6.970;2022-07-29T04:10:49;18.80;76.40
60313;DHT22;46158;52.850;6.970;2022-07-29T04:13:15;18.80;77.10
60313;DHT22;46158;52.850;6.970;2022-07-29T04:15:41;18.80;76.50
60313;DHT22;46158;52.850;6.970;2022-07-29T04:18:06;18.80;76.50
60313;DHT22;46158;52.850;6.970;2022-07-29T04:20:32;18.80;76.60
60313;DHT22;46158;52.850;6.970;2022-07-29T04:22:57;18.80;76.50
60313;DHT22;46158;52.850;6.970;2022-07-29T04:25:23;18.80;77.20
60313;DHT22;46158;52.850;6.970;2022-07-29T04:27:48;18.80;76.60
60313;DHT22;46158;52.850;6.970;2022-07-29T04:30:27;18.80;76.50
60313;DHT22;46158;52.850;6.970;2022-07-29T04:32:52;18.80;76.60
60313;DHT22;46158;52.850;6.970;2022-07-29T04:35:19;18.70;76.50
60313;DHT22;46158;52.850;6.970;2022-07-29T04:37:45;18.80;76.60
60313;DHT22;46158;52.850;6.970;2022-07-29T04:40:11;18.70;76.50
60313;DHT22;46158;52.850;6.970;2022-07-29T04:42:37;18.70;76.50
60313;DHT22;46158;52.850;6.970;2022-07-29T04:45:03;18.70;76.60
60313;DHT22;46158;52.850;6.970;2022-07-29T04:47:29;18.70;76.50
60313;DHT22;46158;52.850;6.970;2022-07-29T04:49:54;18.70;76.60
60313;DHT22;46158;52.850;6.970;2022-07-29T04:52:21;18.70;76.60
60313;DHT22;46158;52.850;6.970;2022-07-29T04:54:47;18.70;76.60
60313;DHT22;46158;52.850;6.970;2022-07-29T04:57:13;18.70;76.60
60313;DHT22;46158;52.850;6.970;2022-07-29T04:59:38;18.70;76.60
60313;DHT22;46158;52.850;6.970;2022-07-29T05:02:04;18.70;76.60
60313;DHT22;46158;52.850;6.970;2022-07-29T05:04:30;18.70;76.60
60313;DHT22;46158;52.850;6.970;2022-07-29T05:06:55;18.70;76.60
60313;DHT22;46158;52.850;6.970;2022-07-29T05:09:21;18.70;76.60
60313;DHT22;46158;52.850;6.970;2022-07-29T05:11:46;18.70;76.60
60313;DHT22;46158;52.850;6.970;2022-07-29T05:14:12;18.70;76.70
60313;DHT22;46158;52.850;6.970;2022-07-29T05:16:37;18.70;76.60
60313;DHT22;46158;52.850;6.970;2022-07-29T05:19:05;18.70;76.70
60313;DHT22;46158;52.850;6.970;2022-07-29T05:21:31;18.70;76.60
60313;DHT22;46158;52.850;6.970;2022-07-29T05:23:56;18.70;76.60
60313;DHT22;46158;52.850;6.970;2022-07-29T05:26:22;18.70;76.60
60313;DHT22;46158;52.850;6.970;2022-07-29T05:28:48;18.70;76.60
60313;DHT22;46158;52.850;6.970;2022-07-29T05:31:14;18.70;76.60
60313;DHT22;46158;52.850;6.970;2022-07-29T05:33:40;18.70;76.60
60313;DHT22;46158;52.850;6.970;2022-07-29T05:36:06;18.70;77.30
60313;DHT22;46158;52.850;6.970;2022-07-29T05:38:35;18.70;76.60
60313;DHT22;46158;52.850;6.970;2022-07-29T05:41:01;18.70;76.50
60313;DHT22;46158;52.850;6.970;2022-07-29T05:43:27;18.70;76.50
60313;DHT22;46158;52.850;6.970;2022-07-29T05:45:53;18.70;76.50
60313;DHT22;46158;52.850;6.970;2022-07-29T05:48:19;18.70;76.50
60313;DHT22;46158;52.850;6.970;2022-07-29T05:50:45;18.70;76.50
60313;DHT22;46158;52.850;6.970;2022-07-29T05:53:10;18.70;76.50
60313;DHT22;46158;52.850;6.970;2022-07-29T05:55:36;18.60;76.40
60313;DHT22;46158;52.850;6.970;2022-07-29T05:58:02;18.60;76.40
60313;DHT22;46158;52.850;6.970;2022-07-29T06:00:27;18.70;76.40
60313;DHT22;46158;52.850;6.970;2022-07-29T06:02:53;18.70;76.40
60313;DHT22;46158;52.850;6.970;2022-07-29T06:05:19;18.70;76.40
60313;DHT22;46158;52.850;6.970;2022-07-29T06:07:44;18.70;76.40
60313;DHT22;46158;52.850;6.970;2022-07-29T06:10:10;18.70;76.40
60313;DHT22;46158;52.850;6.970;2022-07-29T06:12:36;18.70;76.40
60313;DHT22;46158;52.850;6.970;2022-07-29T06:15:02;18.70;76.40
60313;DHT22;46158;52.850;6.970;2022-07-29T06:17:27;18.70;76.40
60313;DHT22;46158;52.850;6.970;2022-07-29T06:19:53;18.70;76.30
60313;DHT22;46158;52.850;6.970;2022-07-29T06:22:19;18.70;76.40
60313;DHT22;46158;52.850;6.970;2022-07-29T06:24:44;18.60;76.30
60313;DHT22;46158;52.850;6.970;2022-07-29T06:27:11;18.70;76.40
60313;DHT22;46158;52.850;6.970;2022-07-29T06:29:36;18.60;76.30
60313;DHT22;46158;52.850;6.970;2022-07-29T06:32:03;18.70;76.40
60313;DHT22;46158;52.850;6.970;2022-07-29T06:34:29;18.70;76.30
60313;DHT22;46158;52.850;6.970;2022-07-29T06:36:54;18.70;76.30
60313;DHT22;46158;52.850;6.970;2022-07-29T06:39:20;18.70;76.40
60313;DHT22;46158;52.850;6.970;2022-07-29T06:41:50;18.70;76.40
60313;DHT22;46158;52.850;6.970;2022-07-29T06:44:16;18.70;76.40
60313;DHT22;46158;52.850;6.970;2022-07-29T06:46:42;18.70;76.40
60313;DHT22;46158;52.850;6.970;2022-07-29T06:49:09;18.70;76.40
60313;DHT22;46158;52.850;6.970;2022-07-29T06:51:35;18.70;76.40
60313;DHT22;46158;52.850;6.970;2022-07-29T06:54:01;18.60;76.30
60313;DHT22;46158;52.850;6.970;2022-07-29T06:56:31;18.70;76.40
60313;DHT22;46158;52.850;6.970;2022-07-29T06:58:57;18.70;76.40
60313;DHT22;46158;52.850;6.970;2022-07-29T07:01:22;18.70;76.40
60313;DHT22;46158;52.850;6.970;2022-07-29T07:03:48;18.60;76.30
60313;DHT22;46158;52.850;6.970;2022-07-29T07:06:14;18.70;76.40
60313;DHT22;46158;52.850;6.970;2022-07-29T07:08:39;18.70;76.40
60313;DHT22;46158;52.850;6.970;2022-07-29T07:11:05;18.60;76.30
60313;DHT22;46158;52.850;6.970;2022-07-29T07:13:31;18.60;76.40
60313;DHT22;46158;52.850;6.970;2022-07-29T07:16:00;18.70;76.40
60313;DHT22;46158;52.850;6.970;2022-07-29T07:18:26;18.70;76.40
60313;DHT22;46158;52.850;6.970;2022-07-29T07:20:51;18.70;76.40
60313;DHT22;46158;52.850;6.970;2022-07-29T07:23:17;18.70;76.40
60313;DHT22;46158;52.850;6.970;2022-07-29T07:25:42;18.70;76.40
60313;DHT22;46158;52.850;6.970;2022-07-29T07:28:08;18.70;76.40
60313;DHT22;46158;52.850;6.970;2022-07-29T07:30:34;18.70;76.50
60313;DHT22;46158;52.850;6.970;2022-07-29T07:33:00;18.70;76.50
60313;DHT22;46158;52.850;6.970;2022-07-29T07:35:26;18.70;76.50
60313;DHT22;46158;52.850;6.970;2022-07-29T07:37:53;18.70;76.50
60313;DHT22;46158;52.850;6.970;2022-07-29T07:40:19;18.70;76.50
60313;DHT22;46158;52.850;6.970;2022-07-29T07:42:44;18.70;76.50
60313;DHT22;46158;52.850;6.970;2022-07-29T07:45:11;18.70;76.50
60313;DHT22;46158;52.850;6.970;2022-07-29T07:47:37;18.70;76.60
60313;DHT22;46158;52.850;6.970;2022-07-29T07:50:05;18.70;76.60
60313;DHT22;46158;52.850;6.970;2022-07-29T07:52:31;18.70;76.60
60313;DHT22;46158;52.850;6.970;2022-07-29T07:54:57;18.70;76.60
60313;DHT22;46158;52.850;6.970;2022-07-29T07:57:23;18.70;76.60
60313;DHT22;46158;52.850;6.970;2022-07-29T07:59:48;18.70;76.60
60313;DHT22;46158;52.850;6.970;2022-07-29T08:02:14;18.70;76.60
60313;DHT22;46158;52.850;6.970;2022-07-29T08:04:40;18.70;76.70
60313;DHT22;46158;52.850;6.970;2022-07-29T08:07:06;18.70;76.70
60313;DHT22;46158;52.850;6.970;2022-07-29T08:09:33;18.70;76.60
60313;DHT22;46158;52.850;6.970;2022-07-29T08:11:59;18.70;76.60
60313;DHT22;46158;52.850;6.970;2022-07-29T08:14:27;18.70;76.70
60313;DHT22;46158;52.850;6.970;2022-07-29T08:16:53;18.70;76.60
60313;DHT22;46158;52.850;6.970;2022-07-29T08:19:19;18.70;76.60
60313;DHT22;46158;52.850;6.970;2022-07-29T08:21:44;18.70;76.60
60313;DHT22;46158;52.850;6.970;2022-07-29T08:24:10;18.70;76.60
60313;DHT22;46158;52.850;6.970;2022-07-29T08:26:54;18.70;76.60
60313;DHT22;46158;52.850;6.970;2022-07-29T08:29:20;18.70;76.60
60313;DHT22;46158;52.850;6.970;2022-07-29T08:31:45;18.70;76.60
60313;DHT22;46158;52.850;6.970;2022-07-29T08:34:11;18.70;76.60
60313;DHT22;46158;52.850;6.970;2022-07-29T08:36:37;18.70;76.60
60313;DHT22;46158;52.850;6.970;2022-07-29T08:39:03;18.70;76.60
60313;DHT22;46158;52.850;6.970;2022-07-29T08:41:29;18.70;76.60
60313;DHT22;46158;52.850;6.970;2022-07-29T08:43:55;18.70;76.60
60313;DHT22;46158;52.850;6.970;2022-07-29T08:46:21;18.70;76.60
60313;DHT22;46158;52.850;6.970;2022-07-29T08:48:47;18.70;76.60
60313;DHT22;46158;52.850;6.970;2022-07-29T08:51:15;18.70;76.60
60313;DHT22;46158;52.850;6.970;2022-07-29T08:53:46;18.70;76.60
60313;DHT22;46158;52.850;6.970;2022-07-29T08:56:15;18.70;76.60
60313;DHT22;46158;52.850;6.970;2022-07-29T08:58:42;18.70;76.60
60313;DHT22;46158;52.850;6.970;2022-07-29T09:01:08;18.80;76.70
60313;DHT22;46158;52.850;6.970;2022-07-29T09:03:36;18.70;76.60
60313;DHT22;46158;52.850;6.970;2022-07-29T09:06:03;18.70;76.60
60313;DHT22;46158;52.850;6.970;2022-07-29T09:08:31;18.80;76.60
60313;DHT22;46158;52.850;6.970;2022-07-29T09:10:57;18.80;76.70
60313;DHT22;46158;52.850;6.970;2022-07-29T09:13:23;18.70;76.60
60313;DHT22;46158;52.850;6.970;2022-07-29T09:15:50;18.80;76.70
60313;DHT22;46158;52.850;6.970;2022-07-29T09:18:38;18.80;76.70
60313;DHT22;46158;52.850;6.970;2022-07-29T09:21:05;18.80;76.70
60313;DHT22;46158;52.850;6.970;2022-07-29T09:24:09;18.80;76.70
60313;DHT22;46158;52.850;6.970;2022-07-29T09:26:41;18.80;76.70
60313;DHT22;46158;52.850;6.970;2022-07-29T09:31:41;18.80;76.70
60313;DHT22;46158;52.850;6.970;2022-07-29T09:34:07;18.80;76.70
60313;DHT22;46158;52.850;6.970;2022-07-29T09:36:43;18.80;76.70
60313;DHT22;46158;52.850;6.970;2022-07-29T09:39:09;18.80;76.70
60313;DHT22;46158;52.850;6.970;2022-07-29T09:41:49;18.80;76.70
60313;DHT22;46158;52.850;6.970;2022-07-29T09:44:15;18.90;76.80
60313;DHT22;46158;52.850;6.970;2022-07-29T09:47:02;18.80;76.80
60313;DHT22;46158;52.850;6.970;2022-07-29T09:49:35;18.80;76.80
60313;DHT22;46158;52.850;6.970;2022-07-29T09:52:07;18.90;76.80
60313;DHT22;46158;52.850;6.970;2022-07-29T09:54:34;18.90;76.80
60313;DHT22;46158;52.850;6.970;2022-07-29T09:57:03;18.90;76.80
60313;DHT22;46158;52.850;6.970;2022-07-29T09:59:30;18.90;76.70
60313;DHT22;46158;52.850;6.970;2022-07-29T10:01:56;18.90;76.70
60313;DHT22;46158;52.850;6.970;2022-07-29T10:04:21;18.90;76.70
60313;DHT22;46158;52.850;6.970;2022-07-29T10:07:01;18.90;76.70
60313;DHT22;46158;52.850;6.970;2022-07-29T10:09:29;18.90;76.70
60313;DHT22;46158;52.850;6.970;2022-07-29T10:12:12;18.90;76.70
60313;DHT22;46158;52.850;6.970;2022-07-29T10:14:41;19.00;76.70
60313;DHT22;46158;52.850;6.970;2022-07-29T10:17:08;19.00;76.70
60313;DHT22;46158;52.850;6.970;2022-07-29T10:19:35;19.00;76.70
60313;DHT22;46158;52.850;6.970;2022-07-29T10:22:04;19.00;76.70
60313;DHT22;46158;52.850;6.970;2022-07-29T10:24:31;19.00;76.60
60313;DHT22;46158;52.850;6.970;2022-07-29T10:27:02;19.00;76.60
60313;DHT22;46158;52.850;6.970;2022-07-29T10:29:29;19.00;76.60
60313;DHT22;46158;52.850;6.970;2022-07-29T10:40:24;19.00;76.60
60313;DHT22;46158;52.850;6.970;2022-07-29T10:43:23;19.00;76.60
60313;DHT22;46158;52.850;6.970;2022-07-29T10:45:55;19.00;76.60
60313;DHT22;46158;52.850;6.970;2022-07-29T10:48:21;19.00;77.20
60313;DHT22;46158;52.850;6.970;2022-07-29T10:51:03;19.00;76.50
60313;DHT22;46158;52.850;6.970;2022-07-29T10:56:24;19.00;76.60
60313;DHT22;46158;52.850;6.970;2022-07-29T11:01:52;19.10;76.60
60313;DHT22;46158;52.850;6.970;2022-07-29T11:07:10;19.10;76.50
60313;DHT22;46158;52.850;6.970;2022-07-29T11:09:36;19.10;76.50
60313;DHT22;46158;52.850;6.970;2022-07-29T11:12:02;19.10;76.50
60313;DHT22;46158;52.850;6.970;2022-07-29T11:17:18;19.10;76.40
60313;DHT22;46158;52.850;6.970;2022-07-29T11:19:44;19.10;76.40
60313;DHT22;46158;52.850;6.970;2022-07-29T11:22:11;19.10;76.30
60313;DHT22;46158;52.850;6.970;2022-07-29T11:24:37;19.10;76.40
60313;DHT22;46158;52.850;6.970;2022-07-29T11:27:15;19.10;76.30
60313;DHT22;46158;52.850;6.970;2022-07-29T11:29:56;19.10;76.30
60313;DHT22;46158;52.850;6.970;2022-07-29T11:32:24;19.10;76.30
60313;DHT22;46158;52.850;6.970;2022-07-29T11:35:19;19.10;76.30
60313;DHT22;46158;52.850;6.970;2022-07-29T11:38:22;19.10;76.30
60313;DHT22;46158;52.850;6.970;2022-07-29T11:40:33;19.10;76.30
60313;DHT22;46158;52.850;6.970;2022-07-29T11:42:58;19.10;76.30
60313;DHT22;46158;52.850;6.970;2022-07-29T11:45:25;19.10;76.30
60313;DHT22;46158;52.850;6.970;2022-07-29T11:47:58;19.10;76.20
60313;DHT22;46158;52.850;6.970;2022-07-29T11:52:57;19.20;76.30
60313;DHT22;46158;52.850;6.970;2022-07-29T11:55:24;19.10;76.20
60313;DHT22;46158;52.850;6.970;2022-07-29T12:00:22;19.10;76.20
60313;DHT22;46158;52.850;6.970;2022-07-29T12:02:48;19.20;76.20
60313;DHT22;46158;52.850;6.970;2022-07-29T12:05:14;19.20;76.20
60313;DHT22;46158;52.850;6.970;2022-07-29T12:07:40;19.20;76.20
60313;DHT22;46158;52.850;6.970;2022-07-29T12:10:06;19.20;76.20
60313;DHT22;46158;52.850;6.970;2022-07-29T12:12:33;19.10;76.10
60313;DHT22;46158;52.850;6.970;2022-07-29T12:15:17;19.20;76.20
60313;DHT22;46158;52.850;6.970;2022-07-29T12:17:46;19.20;76.10
60313;DHT22;46158;52.850;6.970;2022-07-29T12:20:11;19.20;76.10
60313;DHT22;46158;52.850;6.970;2022-07-29T12:22:39;19.20;76.10
60313;DHT22;46158;52.850;6.970;2022-07-29T12:25:13;19.20;76.00
60313;DHT22;46158;52.850;6.970;2022-07-29T12:27:41;19.20;76.00
60313;DHT22;46158;52.850;6.970;2022-07-29T12:30:11;19.20;76.00
60313;DHT22;46158;52.850;6.970;2022-07-29T12:32:38;19.20;76.00
60313;DHT22;46158;52.850;6.970;2022-07-29T12:35:09;19.20;76.00
60313;DHT22;46158;52.850;6.970;2022-07-29T12:37:36;19.20;76.00
60313;DHT22;46158;52.850;6.970;2022-07-29T12:40:06;19.20;76.00
60313;DHT22;46158;52.850;6.970;2022-07-29T12:42:33;19.20;76.00
60313;DHT22;46158;52.850;6.970;2022-07-29T12:44:59;19.20;76.00
60313;DHT22;46158;52.850;6.970;2022-07-29T12:47:24;19.20;75.90
60313;DHT22;46158;52.850;6.970;2022-07-29T12:49:51;19.20;75.90
60313;DHT22;46158;52.850;6.970;2022-07-29T12:52:35;19.20;76.60
60313;DHT22;46158;52.850;6.970;2022-07-29T12:55:02;19.20;75.90
60313;DHT22;46158;52.850;6.970;2022-07-29T12:57:28;19.20;75.90
60313;DHT22;46158;52.850;6.970;2022-07-29T13:00:07;19.20;75.90
60313;DHT22;46158;52.850;6.970;2022-07-29T13:02:35;19.20;75.80
60313;DHT22;46158;52.850;6.970;2022-07-29T13:05:02;19.30;75.90
60313;DHT22;46158;52.850;6.970;2022-07-29T13:07:31;19.30;75.90
60313;DHT22;46158;52.850;6.970;2022-07-29T13:10:19;19.30;75.90
60313;DHT22;46158;52.850;6.970;2022-07-29T13:13:05;19.30;75.80
60313;DHT22;46158;52.850;6.970;2022-07-29T13:15:32;19.30;75.80
60313;DHT22;46158;52.850;6.970;2022-07-29T13:17:58;19.30;75.80
60313;DHT22;46158;52.850;6.970;2022-07-29T13:20:25;19.30;75.80
60313;DHT22;46158;52.850;6.970;2022-07-29T13:22:53;19.30;75.80
60313;DHT22;46158;52.850;6.970;2022-07-29T13:25:30;19.30;75.80
60313;DHT22;46158;52.850;6.970;2022-07-29T13:27:57;19.30;75.80
60313;DHT22;46158;52.850;6.970;2022-07-29T13:30:24;19.30;75.80
60313;DHT22;46158;52.850;6.970;2022-07-29T13:32:50;19.30;76.50
60313;DHT22;46158;52.850;6.970;2022-07-29T13:35:17;19.30;75.80
60313;DHT22;46158;52.850;6.970;2022-07-29T13:37:42;19.30;75.80
60313;DHT22;46158;52.850;6.970;2022-07-29T13:40:09;19.40;75.80
60313;DHT22;46158;52.850;6.970;2022-07-29T13:42:35;19.30;75.80
60313;DHT22;46158;52.850;6.970;2022-07-29T13:45:02;19.40;75.80
60313;DHT22;46158;52.850;6.970;2022-07-29T13:47:29;19.30;75.80
60313;DHT22;46158;52.850;6.970;2022-07-29T13:49:55;19.40;75.80
60313;DHT22;46158;52.850;6.970;2022-07-29T13:52:21;19.40;75.80
60313;DHT22;46158;52.850;6.970;2022-07-29T13:54:47;19.40;75.70
60313;DHT22;46158;52.850;6.970;2022-07-29T13:57:13;19.40;75.70
60313;DHT22;46158;52.850;6.970;2022-07-29T13:59:40;19.40;75.70
60313;DHT22;46158;52.850;6.970;2022-07-29T14:02:06;19.40;75.80
60313;DHT22;46158;52.850;6.970;2022-07-29T14:04:32;19.40;75.70
60313;DHT22;46158;52.850;6.970;2022-07-29T14:06:58;19.40;75.70
60313;DHT22;46158;52.850;6.970;2022-07-29T14:09:24;19.50;75.70
60313;DHT22;46158;52.850;6.970;2022-07-29T14:11:50;19.40;75.60
60313;DHT22;46158;52.850;6.970;2022-07-29T14:14:16;19.50;75.70
60313;DHT22;46158;52.850;6.970;2022-07-29T14:16:42;19.50;75.70
60313;DHT22;46158;52.850;6.970;2022-07-29T14:19:08;19.50;75.70
60313;DHT22;46158;52.850;6.970;2022-07-29T14:21:33;19.50;75.70
60313;DHT22;46158;52.850;6.970;2022-07-29T14:23:59;19.50;75.70
60313;DHT22;46158;52.850;6.970;2022-07-29T14:26:25;19.50;75.60
60313;DHT22;46158;52.850;6.970;2022-07-29T14:28:51;19.50;75.60
60313;DHT22;46158;52.850;6.970;2022-07-29T14:31:16;19.50;75.60
60313;DHT22;46158;52.850;6.970;2022-07-29T14:33:42;19.50;75.60
60313;DHT22;46158;52.850;6.970;2022-07-29T14:36:08;19.50;76.30
60313;DHT22;46158;52.850;6.970;2022-07-29T14:38:34;19.50;75.50
60313;DHT22;46158;52.850;6.970;2022-07-29T14:41:00;19.50;75.50
60313;DHT22;46158;52.850;6.970;2022-07-29T14:43:26;19.50;75.60
60313;DHT22;46158;52.850;6.970;2022-07-29T14:45:51;19.50;75.50
60313;DHT22;46158;52.850;6.970;2022-07-29T14:48:17;19.50;75.60
60313;DHT22;46158;52.850;6.970;2022-07-29T14:50:43;19.50;75.50
60313;DHT22;46158;52.850;6.970;2022-07-29T14:53:08;19.60;75.60
60313;DHT22;46158;52.850;6.970;2022-07-29T14:55:34;19.60;75.50
60313;DHT22;46158;52.850;6.970;2022-07-29T14:58:00;19.60;75.50
60313;DHT22;46158;52.850;6.970;2022-07-29T15:00:26;19.60;75.50
60313;DHT22;46158;52.850;6.970;2022-07-29T15:02:52;19.60;75.50
60313;DHT22;46158;52.850;6.970;2022-07-29T15:05:17;19.60;75.50
60313;DHT22;46158;52.850;6.970;2022-07-29T15:07:43;19.60;76.20
60313;DHT22;46158;52.850;6.970;2022-07-29T15:10:09;19.60;75.40
60313;DHT22;46158;52.850;6.970;2022-07-29T15:12:35;19.60;75.40
60313;DHT22;46158;52.850;6.970;2022-07-29T15:15:00;19.60;75.40
60313;DHT22;46158;52.850;6.970;2022-07-29T15:17:26;19.60;75.40
60313;DHT22;46158;52.850;6.970;2022-07-29T15:19:52;19.60;75.40
60313;DHT22;46158;52.850;6.970;2022-07-29T15:22:17;19.60;75.30
60313;DHT22;46158;52.850;6.970;2022-07-29T15:24:43;19.70;75.40
60313;DHT22;46158;52.850;6.970;2022-07-29T15:27:09;19.60;75.30
60313;DHT22;46158;52.850;6.970;2022-07-29T15:29:40;19.60;75.30
60313;DHT22;46158;52.850;6.970;2022-07-29T15:32:06;19.70;75.40
60313;DHT22;46158;52.850;6.970;2022-07-29T15:34:32;19.70;75.40
60313;DHT22;46158;52.850;6.970;2022-07-29T15:36:57;19.70;75.40
60313;DHT22;46158;52.850;6.970;2022-07-29T15:39:23;19.70;75.40
60313;DHT22;46158;52.850;6.970;2022-07-29T15:41:49;19.70;75.40
60313;DHT22;46158;52.850;6.970;2022-07-29T15:44:15;19.70;75.30
60313;DHT22;46158;52.850;6.970;2022-07-29T15:46:41;19.70;75.30
60313;DHT22;46158;52.850;6.970;2022-07-29T15:49:25;19.70;75.30
60313;DHT22;46158;52.850;6.970;2022-07-29T15:51:57;19.70;75.30
60313;DHT22;46158;52.850;6.970;2022-07-29T15:54:23;19.70;75.30
60313;DHT22;46158;52.850;6.970;2022-07-29T15:56:49;19.70;75.30
60313;DHT22;46158;52.850;6.970;2022-07-29T15:59:15;19.70;75.30
60313;DHT22;46158;52.850;6.970;2022-07-29T16:01:41;19.70;75.30
60313;DHT22;46158;52.850;6.970;2022-07-29T16:04:07;19.70;75.30
60313;DHT22;46158;52.850;6.970;2022-07-29T16:06:32;19.80;75.30